sensor_id;sensor_type;location;lat;lon;timestamp;temperature;humidity
3715;DHT22;1873;49.988;8.674;2022-07-24T00:01:34;23.60;74.60
3715;DHT22;1873;49.988;8.674;2022-07-24T00:04:05;23.60;75.10
3715;DHT22;1873;49.988;8.674;2022-07-24T00:06:33;23.50;75.30
3715;DHT22;1873;49.988;8.674;2022-07-24T00:09:02;23.50;75.40
3715;DHT22;1873;49.988;8.674;2022-07-24T00:11:31;23.50;75.60
3715;DHT22;1873;49.988;8.674;2022-07-24T00:14:01;23.40;75.80
3715;DHT22;1873;49.988;8.674;2022-07-24T00:16:36;23.40;76.10
3715;DHT22;1873;49.988;8.674;2022-07-24T00:19:06;23.40;76.30
3715;DHT22;1873;49.988;8.674;2022-07-24T00:21:35;23.40;76.40
3715;DHT22;1873;49.988;8.674;2022-07-24T00:24:04;23.40;76.40
3715;DHT22;1873;49.988;8.674;2022-07-24T00:26:32;23.40;76.40
3715;DHT22;1873;49.988;8.674;2022-07-24T00:29:01;23.40;76.60
3715;DHT22;1873;49.988;8.674;2022-07-24T00:31:31;23.40;76.50
3715;DHT22;1873;49.988;8.674;2022-07-24T00:33:59;23.50;76.40
3715;DHT22;1873;49.988;8.674;2022-07-24T00:36:29;23.40;76.60
3715;DHT22;1873;49.988;8.674;2022-07-24T00:38:57;23.40;76.50
3715;DHT22;1873;49.988;8.674;2022-07-24T00:41:26;23.40;76.80
3715;DHT22;1873;49.988;8.674;2022-07-24T00:44:03;23.40;77.10
3715;DHT22;1873;49.988;8.674;2022-07-24T00:46:32;23.30;76.90
3715;DHT22;1873;49.988;8.674;2022-07-24T00:49:01;23.30;77.20
3715;DHT22;1873;49.988;8.674;2022-07-24T00:51:46;23.20;77.40
3715;DHT22;1873;49.988;8.674;2022-07-24T00:54:16;23.20;77.50
3715;DHT22;1873;49.988;8.674;2022-07-24T00:56:47;23.10;77.80
3715;DHT22;1873;49.988;8.674;2022-07-24T00:59:16;23.10;78.10
3715;DHT22;1873;49.988;8.674;2022-07-24T01:01:46;23.10;78.20
3715;DHT22;1873;49.988;8.674;2022-07-24T01:04:15;23.00;78.30
3715;DHT22;1873;49.988;8.674;2022-07-24T01:06:45;23.10;78.10
3715;DHT22;1873;49.988;8.674;2022-07-24T01:09:15;23.10;78.00
3715;DHT22;1873;49.988;8.674;2022-07-24T01:11:43;23.10;78.00
3715;DHT22;1873;49.988;8.674;2022-07-24T01:14:13;23.10;78.00
3715;DHT22;1873;49.988;8.674;2022-07-24T01:16:42;23.00;78.40
3715;DHT22;1873;49.988;8.674;2022-07-24T01:19:12;23.00;78.50
3715;DHT22;1873;49.988;8.674;2022-07-24T01:21:47;23.00;78.80
3715;DHT22;1873;49.988;8.674;2022-07-24T01:24:17;23.00;78.90
3715;DHT22;1873;49.988;8.674;2022-07-24T01:26:47;23.00;78.90
3715;DHT22;1873;49.988;8.674;2022-07-24T01:29:16;23.00;79.00
3715;DHT22;1873;49.988;8.674;2022-07-24T01:31:44;23.00;79.10
3715;DHT22;1873;49.988;8.674;2022-07-24T01:34:13;22.90;79.20
3715;DHT22;1873;49.988;8.674;2022-07-24T01:36:42;22.90;79.40
3715;DHT22;1873;49.988;8.674;2022-07-24T01:39:12;23.00;79.30
3715;DHT22;1873;49.988;8.674;2022-07-24T01:41:41;22.90;79.10
3715;DHT22;1873;49.988;8.674;2022-07-24T01:44:09;22.90;79.50
3715;DHT22;1873;49.988;8.674;2022-07-24T01:46:38;22.80;79.40
3715;DHT22;1873;49.988;8.674;2022-07-24T01:49:06;22.90;79.40
3715;DHT22;1873;49.988;8.674;2022-07-24T01:51:36;22.90;79.50
3715;DHT22;1873;49.988;8.674;2022-07-24T01:54:04;22.80;79.60
3715;DHT22;1873;49.988;8.674;2022-07-24T01:56:34;22.70;79.70
3715;DHT22;1873;49.988;8.674;2022-07-24T01:59:04;22.70;80.30
3715;DHT22;1873;49.988;8.674;2022-07-24T02:01:36;22.70;80.40
3715;DHT22;1873;49.988;8.674;2022-07-24T02:04:07;22.70;80.40
3715;DHT22;1873;49.988;8.674;2022-07-24T02:06:35;22.70;80.50
3715;DHT22;1873;49.988;8.674;2022-07-24T02:09:03;22.60;81.10
3715;DHT22;1873;49.988;8.674;2022-07-24T02:11:34;22.70;81.30
3715;DHT22;1873;49.988;8.674;2022-07-24T02:14:02;22.60;81.30
3715;DHT22;1873;49.988;8.674;2022-07-24T02:16:31;22.60;81.50
3715;DHT22;1873;49.988;8.674;2022-07-24T02:18:59;22.60;81.80
3715;DHT22;1873;49.988;8.674;2022-07-24T02:21:28;22.70;81.80
3715;DHT22;1873;49.988;8.674;2022-07-24T02:23:56;22.70;81.60
3715;DHT22;1873;49.988;8.674;2022-07-24T02:26:25;22.70;81.40
3715;DHT22;1873;49.988;8.674;2022-07-24T02:28:56;22.70;81.50
3715;DHT22;1873;49.988;8.674;2022-07-24T02:31:24;22.60;81.50
3715;DHT22;1873;49.988;8.674;2022-07-24T02:33:53;22.60;82.20
3715;DHT22;1873;49.988;8.674;2022-07-24T02:36:21;22.50;82.90
3715;DHT22;1873;49.988;8.674;2022-07-24T02:38:49;22.60;82.50
3715;DHT22;1873;49.988;8.674;2022-07-24T02:41:18;22.50;82.50
3715;DHT22;1873;49.988;8.674;2022-07-24T02:43:46;22.60;82.60
3715;DHT22;1873;49.988;8.674;2022-07-24T02:46:16;22.60;83.30
3715;DHT22;1873;49.988;8.674;2022-07-24T02:48:45;22.50;82.70
3715;DHT22;1873;49.988;8.674;2022-07-24T02:51:13;22.60;82.80
3715;DHT22;1873;49.988;8.674;2022-07-24T02:53:41;22.40;82.60
3715;DHT22;1873;49.988;8.674;2022-07-24T02:56:10;22.40;83.30
3715;DHT22;1873;49.988;8.674;2022-07-24T02:58:38;22.30;83.40
3715;DHT22;1873;49.988;8.674;2022-07-24T03:01:06;22.30;83.50
3715;DHT22;1873;49.988;8.674;2022-07-24T03:03:38;22.30;83.50
3715;DHT22;1873;49.988;8.674;2022-07-24T03:06:07;22.20;83.80
3715;DHT22;1873;49.988;8.674;2022-07-24T03:08:36;22.10;84.20
3715;DHT22;1873;49.988;8.674;2022-07-24T03:11:04;22.10;84.30
3715;DHT22;1873;49.988;8.674;2022-07-24T03:13:33;22.10;84.40
3715;DHT22;1873;49.988;8.674;2022-07-24T03:16:01;22.20;84.60
3715;DHT22;1873;49.988;8.674;2022-07-24T03:18:31;22.10;84.70
3715;DHT22;1873;49.988;8.674;2022-07-24T03:21:01;22.10;84.90
3715;DHT22;1873;49.988;8.674;2022-07-24T03:23:29;22.10;85.10
3715;DHT22;1873;49.988;8.674;2022-07-24T03:26:23;22.10;85.20
3715;DHT22;1873;49.988;8.674;2022-07-24T03:28:53;22.10;85.40
3715;DHT22;1873;49.988;8.674;2022-07-24T03:31:21;22.10;86.20
3715;DHT22;1873;49.988;8.674;2022-07-24T03:33:50;22.10;85.30
3715;DHT22;1873;49.988;8.674;2022-07-24T03:36:19;22.10;85.70
3715;DHT22;1873;49.988;8.674;2022-07-24T03:38:48;22.00;85.80
3715;DHT22;1873;49.988;8.674;2022-07-24T03:41:16;22.00;85.70
3715;DHT22;1873;49.988;8.674;2022-07-24T03:43:45;22.10;85.90
3715;DHT22;1873;49.988;8.674;2022-07-24T03:46:13;22.10;86.00
3715;DHT22;1873;49.988;8.674;2022-07-24T03:48:41;22.00;85.90
3715;DHT22;1873;49.988;8.674;2022-07-24T03:51:10;22.00;86.20
3715;DHT22;1873;49.988;8.674;2022-07-24T03:53:39;21.90;86.30
3715;DHT22;1873;49.988;8.674;2022-07-24T03:56:09;22.00;86.50
3715;DHT22;1873;49.988;8.674;2022-07-24T03:58:37;22.00;86.60
3715;DHT22;1873;49.988;8.674;2022-07-24T04:01:06;22.10;86.60
3715;DHT22;1873;49.988;8.674;2022-07-24T04:03:34;22.10;86.60
3715;DHT22;1873;49.988;8.674;2022-07-24T04:06:04;22.00;86.30
3715;DHT22;1873;49.988;8.674;2022-07-24T04:08:33;22.00;86.60
3715;DHT22;1873;49.988;8.674;2022-07-24T04:11:03;22.00;86.60
3715;DHT22;1873;49.988;8.674;2022-07-24T04:13:31;22.00;86.80
3715;DHT22;1873;49.988;8.674;2022-07-24T04:16:00;21.90;87.00
3715;DHT22;1873;49.988;8.674;2022-07-24T04:18:28;21.90;86.90
3715;DHT22;1873;49.988;8.674;2022-07-24T04:20:57;21.90;87.40
3715;DHT22;1873;49.988;8.674;2022-07-24T04:23:25;21.90;87.30
3715;DHT22;1873;49.988;8.674;2022-07-24T04:25:53;22.00;87.40
3715;DHT22;1873;49.988;8.674;2022-07-24T04:28:23;21.90;87.40
3715;DHT22;1873;49.988;8.674;2022-07-24T04:30:51;21.90;87.60
3715;DHT22;1873;49.988;8.674;2022-07-24T04:33:20;21.90;87.70
3715;DHT22;1873;49.988;8.674;2022-07-24T04:35:48;21.90;87.80
3715;DHT22;1873;49.988;8.674;2022-07-24T04:38:16;21.90;87.70
3715;DHT22;1873;49.988;8.674;2022-07-24T04:40:45;21.90;88.00
3715;DHT22;1873;49.988;8.674;2022-07-24T04:43:13;21.90;88.10
3715;DHT22;1873;49.988;8.674;2022-07-24T04:45:42;21.90;87.80
3715;DHT22;1873;49.988;8.674;2022-07-24T04:48:11;22.00;87.90
3715;DHT22;1873;49.988;8.674;2022-07-24T04:50:39;21.90;88.00
3715;DHT22;1873;49.988;8.674;2022-07-24T04:53:08;22.00;88.20
3715;DHT22;1873;49.988;8.674;2022-07-24T04:55:36;22.00;88.30
3715;DHT22;1873;49.988;8.674;2022-07-24T04:58:05;22.10;88.10
3715;DHT22;1873;49.988;8.674;2022-07-24T05:00:33;22.10;88.00
3715;DHT22;1873;49.988;8.674;2022-07-24T05:03:03;22.20;87.90
3715;DHT22;1873;49.988;8.674;2022-07-24T05:05:31;22.10;87.80
3715;DHT22;1873;49.988;8.674;2022-07-24T05:07:59;22.10;88.00
3715;DHT22;1873;49.988;8.674;2022-07-24T05:10:28;22.10;88.20
3715;DHT22;1873;49.988;8.674;2022-07-24T05:12:56;22.10;88.20
3715;DHT22;1873;49.988;8.674;2022-07-24T05:15:29;22.00;88.50
3715;DHT22;1873;49.988;8.674;2022-07-24T05:17:58;22.00;88.80
3715;DHT22;1873;49.988;8.674;2022-07-24T05:20:28;22.00;88.40
3715;DHT22;1873;49.988;8.674;2022-07-24T05:22:56;22.00;88.70
3715;DHT22;1873;49.988;8.674;2022-07-24T05:25:25;22.10;88.70
3715;DHT22;1873;49.988;8.674;2022-07-24T05:27:53;22.00;88.80
3715;DHT22;1873;49.988;8.674;2022-07-24T05:30:22;22.10;88.80
3715;DHT22;1873;49.988;8.674;2022-07-24T05:32:50;22.10;88.90
3715;DHT22;1873;49.988;8.674;2022-07-24T05:35:19;22.10;89.20
3715;DHT22;1873;49.988;8.674;2022-07-24T05:37:57;22.10;89.00
3715;DHT22;1873;49.988;8.674;2022-07-24T05:40:25;22.10;88.90
3715;DHT22;1873;49.988;8.674;2022-07-24T05:42:54;22.10;88.90
3715;DHT22;1873;49.988;8.674;2022-07-24T05:45:22;22.20;89.40
3715;DHT22;1873;49.988;8.674;2022-07-24T05:47:50;22.20;88.80
3715;DHT22;1873;49.988;8.674;2022-07-24T05:50:22;22.30;89.00
3715;DHT22;1873;49.988;8.674;2022-07-24T05:52:50;22.40;89.00
3715;DHT22;1873;49.988;8.674;2022-07-24T05:55:20;22.40;88.60
3715;DHT22;1873;49.988;8.674;2022-07-24T05:57:49;22.60;88.80
3715;DHT22;1873;49.988;8.674;2022-07-24T06:00:17;22.60;88.80
3715;DHT22;1873;49.988;8.674;2022-07-24T06:02:49;22.60;89.10
3715;DHT22;1873;49.988;8.674;2022-07-24T06:05:17;22.70;87.90
3715;DHT22;1873;49.988;8.674;2022-07-24T06:07:47;22.80;87.70
3715;DHT22;1873;49.988;8.674;2022-07-24T06:10:17;22.80;87.70
3715;DHT22;1873;49.988;8.674;2022-07-24T06:12:53;22.80;87.80
3715;DHT22;1873;49.988;8.674;2022-07-24T06:15:21;22.80;87.70
3715;DHT22;1873;49.988;8.674;2022-07-24T06:17:50;22.80;87.60
3715;DHT22;1873;49.988;8.674;2022-07-24T06:20:18;22.80;87.60
3715;DHT22;1873;49.988;8.674;2022-07-24T06:22:47;22.90;87.40
3715;DHT22;1873;49.988;8.674;2022-07-24T06:25:16;22.90;87.30
3715;DHT22;1873;49.988;8.674;2022-07-24T06:28:22;23.00;87.10
3715;DHT22;1873;49.988;8.674;2022-07-24T06:30:50;23.00;87.30
3715;DHT22;1873;49.988;8.674;2022-07-24T06:33:19;23.00;86.90
3715;DHT22;1873;49.988;8.674;2022-07-24T06:35:47;23.00;87.50
3715;DHT22;1873;49.988;8.674;2022-07-24T06:38:16;23.00;87.20
3715;DHT22;1873;49.988;8.674;2022-07-24T06:40:44;23.10;87.00
3715;DHT22;1873;49.988;8.674;2022-07-24T06:43:13;23.20;86.70
3715;DHT22;1873;49.988;8.674;2022-07-24T06:45:43;23.20;86.80
3715;DHT22;1873;49.988;8.674;2022-07-24T06:48:11;23.30;86.60
3715;DHT22;1873;49.988;8.674;2022-07-24T06:50:40;23.40;86.70
3715;DHT22;1873;49.988;8.674;2022-07-24T06:53:08;23.40;86.50
3715;DHT22;1873;49.988;8.674;2022-07-24T06:55:36;23.40;86.50
3715;DHT22;1873;49.988;8.674;2022-07-24T06:58:06;23.50;86.60
3715;DHT22;1873;49.988;8.674;2022-07-24T07:00:35;23.60;86.40
3715;DHT22;1873;49.988;8.674;2022-07-24T07:03:31;23.70;86.60
3715;DHT22;1873;49.988;8.674;2022-07-24T07:06:00;23.80;86.30
3715;DHT22;1873;49.988;8.674;2022-07-24T07:08:28;23.80;85.10
3715;DHT22;1873;49.988;8.674;2022-07-24T07:10:56;23.90;85.20
3715;DHT22;1873;49.988;8.674;2022-07-24T07:13:25;23.90;86.00
3715;DHT22;1873;49.988;8.674;2022-07-24T07:15:54;24.00;84.80
3715;DHT22;1873;49.988;8.674;2022-07-24T07:18:22;24.10;84.50
3715;DHT22;1873;49.988;8.674;2022-07-24T07:20:55;24.20;84.20
3715;DHT22;1873;49.988;8.674;2022-07-24T07:23:25;24.40;83.60
3715;DHT22;1873;49.988;8.674;2022-07-24T07:25:57;24.60;82.80
3715;DHT22;1873;49.988;8.674;2022-07-24T07:28:25;24.70;81.30
3715;DHT22;1873;49.988;8.674;2022-07-24T07:30:56;24.80;82.50
3715;DHT22;1873;49.988;8.674;2022-07-24T07:33:25;25.00;80.30
3715;DHT22;1873;49.988;8.674;2022-07-24T07:35:55;25.30;80.30
3715;DHT22;1873;49.988;8.674;2022-07-24T07:38:23;25.80;79.20
3715;DHT22;1873;49.988;8.674;2022-07-24T07:40:52;26.80;77.30
3715;DHT22;1873;49.988;8.674;2022-07-24T07:43:23;28.40;73.50
3715;DHT22;1873;49.988;8.674;2022-07-24T07:45:51;30.10;68.70
3715;DHT22;1873;49.988;8.674;2022-07-24T07:48:19;31.40;64.40
3715;DHT22;1873;49.988;8.674;2022-07-24T07:50:47;32.10;60.40
3715;DHT22;1873;49.988;8.674;2022-07-24T07:53:17;32.70;58.80
3715;DHT22;1873;49.988;8.674;2022-07-24T07:55:46;33.10;56.50
3715;DHT22;1873;49.988;8.674;2022-07-24T07:58:18;33.20;56.60
3715;DHT22;1873;49.988;8.674;2022-07-24T08:00:46;33.80;53.30
3715;DHT22;1873;49.988;8.674;2022-07-24T08:03:14;33.60;54.00
3715;DHT22;1873;49.988;8.674;2022-07-24T08:05:48;33.70;54.00
3715;DHT22;1873;49.988;8.674;2022-07-24T08:08:26;33.90;53.00
3715;DHT22;1873;49.988;8.674;2022-07-24T08:10:55;33.90;51.90
3715;DHT22;1873;49.988;8.674;2022-07-24T08:13:23;34.30;52.10
3715;DHT22;1873;49.988;8.674;2022-07-24T08:15:51;34.40;51.70
3715;DHT22;1873;49.988;8.674;2022-07-24T08:18:20;35.20;48.50
3715;DHT22;1873;49.988;8.674;2022-07-24T08:20:50;34.80;48.90
3715;DHT22;1873;49.988;8.674;2022-07-24T08:23:19;34.90;49.30
3715;DHT22;1873;49.988;8.674;2022-07-24T08:25:49;35.20;48.10
3715;DHT22;1873;49.988;8.674;2022-07-24T08:28:17;35.30;47.00
3715;DHT22;1873;49.988;8.674;2022-07-24T08:30:48;35.50;46.20
3715;DHT22;1873;49.988;8.674;2022-07-24T08:33:19;35.60;45.80
3715;DHT22;1873;49.988;8.674;2022-07-24T08:35:48;35.30;45.80
3715;DHT22;1873;49.988;8.674;2022-07-24T08:38:16;35.10;46.70
3715;DHT22;1873;49.988;8.674;2022-07-24T08:40:46;35.30;45.80
3715;DHT22;1873;49.988;8.674;2022-07-24T08:43:17;35.80;44.70
3715;DHT22;1873;49.988;8.674;2022-07-24T08:45:52;35.90;45.90
3715;DHT22;1873;49.988;8.674;2022-07-24T08:48:23;36.00;44.50
3715;DHT22;1873;49.988;8.674;2022-07-24T08:50:52;35.90;44.70
3715;DHT22;1873;49.988;8.674;2022-07-24T08:53:22;36.20;44.40
3715;DHT22;1873;49.988;8.674;2022-07-24T08:55:51;36.20;43.60
3715;DHT22;1873;49.988;8.674;2022-07-24T08:58:22;36.60;43.30
3715;DHT22;1873;49.988;8.674;2022-07-24T09:00:51;36.80;42.30
3715;DHT22;1873;49.988;8.674;2022-07-24T09:03:20;36.40;42.30
3715;DHT22;1873;49.988;8.674;2022-07-24T09:05:53;36.70;41.80
3715;DHT22;1873;49.988;8.674;2022-07-24T09:08:22;36.70;41.90
3715;DHT22;1873;49.988;8.674;2022-07-24T09:10:56;37.00;41.00
3715;DHT22;1873;49.988;8.674;2022-07-24T09:13:28;36.40;40.90
3715;DHT22;1873;49.988;8.674;2022-07-24T09:16:19;36.30;41.60
3715;DHT22;1873;49.988;8.674;2022-07-24T09:18:51;36.20;41.20
3715;DHT22;1873;49.988;8.674;2022-07-24T09:21:22;36.00;41.90
3715;DHT22;1873;49.988;8.674;2022-07-24T09:23:50;35.40;41.50
3715;DHT22;1873;49.988;8.674;2022-07-24T09:26:47;35.00;42.60
3715;DHT22;1873;49.988;8.674;2022-07-24T09:29:19;34.90;43.70
3715;DHT22;1873;49.988;8.674;2022-07-24T09:31:52;35.10;44.70
3715;DHT22;1873;49.988;8.674;2022-07-24T09:34:21;35.40;42.30
3715;DHT22;1873;49.988;8.674;2022-07-24T09:36:59;35.20;42.60
3715;DHT22;1873;49.988;8.674;2022-07-24T09:39:31;35.20;42.90
3715;DHT22;1873;49.988;8.674;2022-07-24T09:42:02;35.20;43.50
3715;DHT22;1873;49.988;8.674;2022-07-24T09:44:33;35.00;43.10
3715;DHT22;1873;49.988;8.674;2022-07-24T09:47:03;35.00;43.10
3715;DHT22;1873;49.988;8.674;2022-07-24T09:49:33;35.00;43.60
3715;DHT22;1873;49.988;8.674;2022-07-24T09:52:08;34.90;43.30
3715;DHT22;1873;49.988;8.674;2022-07-24T09:54:38;34.80;42.50
3715;DHT22;1873;49.988;8.674;2022-07-24T09:57:22;34.50;43.20
3715;DHT22;1873;49.988;8.674;2022-07-24T09:59:54;34.70;44.30
3715;DHT22;1873;49.988;8.674;2022-07-24T10:02:25;34.70;43.00
3715;DHT22;1873;49.988;8.674;2022-07-24T10:04:54;34.50;44.00
3715;DHT22;1873;49.988;8.674;2022-07-24T10:07:25;34.70;43.00
3715;DHT22;1873;49.988;8.674;2022-07-24T10:09:56;34.50;42.90
3715;DHT22;1873;49.988;8.674;2022-07-24T10:12:25;34.30;43.20
3715;DHT22;1873;49.988;8.674;2022-07-24T10:14:57;34.00;43.00
3715;DHT22;1873;49.988;8.674;2022-07-24T10:17:34;33.90;44.30
3715;DHT22;1873;49.988;8.674;2022-07-24T10:20:10;33.50;44.40
3715;DHT22;1873;49.988;8.674;2022-07-24T10:23:03;33.80;44.60
3715;DHT22;1873;49.988;8.674;2022-07-24T10:25:56;33.90;44.50
3715;DHT22;1873;49.988;8.674;2022-07-24T10:28:45;33.90;43.80
3715;DHT22;1873;49.988;8.674;2022-07-24T10:31:26;34.00;43.90
3715;DHT22;1873;49.988;8.674;2022-07-24T10:33:57;33.90;44.00
3715;DHT22;1873;49.988;8.674;2022-07-24T10:37:04;34.20;43.90
3715;DHT22;1873;49.988;8.674;2022-07-24T10:39:37;34.20;44.40
3715;DHT22;1873;49.988;8.674;2022-07-24T10:42:11;34.50;44.50
3715;DHT22;1873;49.988;8.674;2022-07-24T10:45:15;34.50;44.20
3715;DHT22;1873;49.988;8.674;2022-07-24T10:47:47;33.90;43.20
3715;DHT22;1873;49.988;8.674;2022-07-24T10:50:20;33.50;44.30
3715;DHT22;1873;49.988;8.674;2022-07-24T10:52:53;33.30;44.40
3715;DHT22;1873;49.988;8.674;2022-07-24T10:55:24;33.60;44.60
3715;DHT22;1873;49.988;8.674;2022-07-24T10:58:03;33.70;44.80
3715;DHT22;1873;49.988;8.674;2022-07-24T11:00:41;33.80;44.70
3715;DHT22;1873;49.988;8.674;2022-07-24T11:03:23;33.90;43.70
3715;DHT22;1873;49.988;8.674;2022-07-24T11:06:02;33.90;44.40
3715;DHT22;1873;49.988;8.674;2022-07-24T11:08:32;34.10;44.70
3715;DHT22;1873;49.988;8.674;2022-07-24T11:11:12;34.20;44.00
3715;DHT22;1873;49.988;8.674;2022-07-24T11:13:47;34.20;43.90
3715;DHT22;1873;49.988;8.674;2022-07-24T11:16:18;34.30;44.30
3715;DHT22;1873;49.988;8.674;2022-07-24T11:19:31;34.40;43.70
3715;DHT22;1873;49.988;8.674;2022-07-24T11:22:08;34.30;43.70
3715;DHT22;1873;49.988;8.674;2022-07-24T11:25:05;34.20;43.50
3715;DHT22;1873;49.988;8.674;2022-07-24T11:27:52;34.40;43.30
3715;DHT22;1873;49.988;8.674;2022-07-24T11:30:43;34.50;42.90
3715;DHT22;1873;49.988;8.674;2022-07-24T11:33:19;34.70;43.30
3715;DHT22;1873;49.988;8.674;2022-07-24T11:35:49;34.70;42.40
3715;DHT22;1873;49.988;8.674;2022-07-24T11:38:17;34.70;40.50
3715;DHT22;1873;49.988;8.674;2022-07-24T11:40:46;34.50;41.40
3715;DHT22;1873;49.988;8.674;2022-07-24T11:43:14;34.30;41.20
3715;DHT22;1873;49.988;8.674;2022-07-24T11:45:51;34.20;45.10
3715;DHT22;1873;49.988;8.674;2022-07-24T11:48:19;34.20;42.60
3715;DHT22;1873;49.988;8.674;2022-07-24T11:51:04;34.30;42.70
3715;DHT22;1873;49.988;8.674;2022-07-24T11:53:53;34.30;43.00
3715;DHT22;1873;49.988;8.674;2022-07-24T11:56:21;33.80;42.60
3715;DHT22;1873;49.988;8.674;2022-07-24T11:58:50;33.50;43.80
3715;DHT22;1873;49.988;8.674;2022-07-24T12:01:19;33.50;44.20
3715;DHT22;1873;49.988;8.674;2022-07-24T12:03:49;32.80;43.30
3715;DHT22;1873;49.988;8.674;2022-07-24T12:06:20;32.90;44.30
3715;DHT22;1873;49.988;8.674;2022-07-24T12:09:07;33.00;43.90
3715;DHT22;1873;49.988;8.674;2022-07-24T12:11:35;32.90;44.70
3715;DHT22;1873;49.988;8.674;2022-07-24T12:14:05;32.90;45.10
3715;DHT22;1873;49.988;8.674;2022-07-24T12:16:36;32.70;45.90
3715;DHT22;1873;49.988;8.674;2022-07-24T12:19:16;32.50;46.50
3715;DHT22;1873;49.988;8.674;2022-07-24T12:21:47;32.40;46.70
3715;DHT22;1873;49.988;8.674;2022-07-24T12:24:15;32.30;46.40
3715;DHT22;1873;49.988;8.674;2022-07-24T12:26:51;32.20;46.40
3715;DHT22;1873;49.988;8.674;2022-07-24T12:29:20;32.10;46.30
3715;DHT22;1873;49.988;8.674;2022-07-24T12:31:50;31.70;46.40
3715;DHT22;1873;49.988;8.674;2022-07-24T12:34:21;31.80;46.70
3715;DHT22;1873;49.988;8.674;2022-07-24T12:36:51;31.80;46.60
3715;DHT22;1873;49.988;8.674;2022-07-24T12:39:20;31.80;46.50
3715;DHT22;1873;49.988;8.674;2022-07-24T12:41:50;31.50;46.40
3715;DHT22;1873;49.988;8.674;2022-07-24T12:44:20;31.40;47.70
3715;DHT22;1873;49.988;8.674;2022-07-24T12:46:49;31.40;47.30
3715;DHT22;1873;49.988;8.674;2022-07-24T12:49:18;31.50;46.60
3715;DHT22;1873;49.988;8.674;2022-07-24T12:51:49;31.40;47.80
3715;DHT22;1873;49.988;8.674;2022-07-24T12:54:21;31.40;47.90
3715;DHT22;1873;49.988;8.674;2022-07-24T12:56:51;31.30;47.20
3715;DHT22;1873;49.988;8.674;2022-07-24T12:59:28;31.30;48.30
3715;DHT22;1873;49.988;8.674;2022-07-24T13:01:58;31.30;47.50
3715;DHT22;1873;49.988;8.674;2022-07-24T13:04:27;31.30;48.50
3715;DHT22;1873;49.988;8.674;2022-07-24T13:06:56;31.20;48.30
3715;DHT22;1873;49.988;8.674;2022-07-24T13:09:30;31.10;48.50
3715;DHT22;1873;49.988;8.674;2022-07-24T13:12:07;31.00;47.60
3715;DHT22;1873;49.988;8.674;2022-07-24T13:14:36;31.10;47.70
3715;DHT22;1873;49.988;8.674;2022-07-24T13:17:07;30.90;48.20
3715;DHT22;1873;49.988;8.674;2022-07-24T13:19:37;31.00;48.20
3715;DHT22;1873;49.988;8.674;2022-07-24T13:22:06;31.00;46.90
3715;DHT22;1873;49.988;8.674;2022-07-24T13:24:37;31.10;47.00
3715;DHT22;1873;49.988;8.674;2022-07-24T13:27:06;31.10;47.00
3715;DHT22;1873;49.988;8.674;2022-07-24T13:29:35;31.00;46.40
3715;DHT22;1873;49.988;8.674;2022-07-24T13:32:04;30.90;46.40
3715;DHT22;1873;49.988;8.674;2022-07-24T13:34:33;30.80;47.20
3715;DHT22;1873;49.988;8.674;2022-07-24T13:37:03;30.80;48.40
3715;DHT22;1873;49.988;8.674;2022-07-24T13:39:38;30.80;47.60
3715;DHT22;1873;49.988;8.674;2022-07-24T13:42:09;30.70;48.40
3715;DHT22;1873;49.988;8.674;2022-07-24T13:44:37;30.70;48.70
3715;DHT22;1873;49.988;8.674;2022-07-24T13:47:06;30.60;47.70
3715;DHT22;1873;49.988;8.674;2022-07-24T13:49:35;30.60;47.10
3715;DHT22;1873;49.988;8.674;2022-07-24T13:52:04;30.80;46.70
3715;DHT22;1873;49.988;8.674;2022-07-24T13:54:37;30.70;47.50
3715;DHT22;1873;49.988;8.674;2022-07-24T13:57:06;30.60;47.50
3715;DHT22;1873;49.988;8.674;2022-07-24T13:59:42;30.60;46.90
3715;DHT22;1873;49.988;8.674;2022-07-24T14:02:11;30.50;48.10
3715;DHT22;1873;49.988;8.674;2022-07-24T14:04:42;30.50;48.10
3715;DHT22;1873;49.988;8.674;2022-07-24T14:07:13;30.50;47.80
3715;DHT22;1873;49.988;8.674;2022-07-24T14:09:43;30.50;47.90
3715;DHT22;1873;49.988;8.674;2022-07-24T14:12:11;30.50;48.00
3715;DHT22;1873;49.988;8.674;2022-07-24T14:14:39;30.50;48.00
3715;DHT22;1873;49.988;8.674;2022-07-24T14:17:09;30.30;47.60
3715;DHT22;1873;49.988;8.674;2022-07-24T14:19:37;30.50;47.50
3715;DHT22;1873;49.988;8.674;2022-07-24T14:22:06;30.50;47.10
3715;DHT22;1873;49.988;8.674;2022-07-24T14:24:34;30.50;47.50
3715;DHT22;1873;49.988;8.674;2022-07-24T14:27:07;30.50;47.90
3715;DHT22;1873;49.988;8.674;2022-07-24T14:29:35;30.40;47.70
3715;DHT22;1873;49.988;8.674;2022-07-24T14:32:04;30.40;48.50
3715;DHT22;1873;49.988;8.674;2022-07-24T14:34:33;30.30;48.30
3715;DHT22;1873;49.988;8.674;2022-07-24T14:37:01;30.20;48.20
3715;DHT22;1873;49.988;8.674;2022-07-24T14:39:30;30.20;48.80
3715;DHT22;1873;49.988;8.674;2022-07-24T14:41:58;30.10;49.10
3715;DHT22;1873;49.988;8.674;2022-07-24T14:44:28;30.10;49.70
3715;DHT22;1873;49.988;8.674;2022-07-24T14:46:56;30.00;49.30
3715;DHT22;1873;49.988;8.674;2022-07-24T14:49:26;29.90;49.70
3715;DHT22;1873;49.988;8.674;2022-07-24T14:51:57;29.90;48.60
3715;DHT22;1873;49.988;8.674;2022-07-24T14:54:25;29.90;49.20
3715;DHT22;1873;49.988;8.674;2022-07-24T14:56:54;29.90;49.90
3715;DHT22;1873;49.988;8.674;2022-07-24T14:59:23;29.90;49.80
3715;DHT22;1873;49.988;8.674;2022-07-24T15:01:53;29.90;49.90
3715;DHT22;1873;49.988;8.674;2022-07-24T15:04:21;29.90;50.00
3715;DHT22;1873;49.988;8.674;2022-07-24T15:06:49;29.90;50.20
3715;DHT22;1873;49.988;8.674;2022-07-24T15:09:17;29.90;50.70
3715;DHT22;1873;49.988;8.674;2022-07-24T15:11:46;29.80;50.50
3715;DHT22;1873;49.988;8.674;2022-07-24T15:14:14;29.70;51.00
3715;DHT22;1873;49.988;8.674;2022-07-24T15:16:43;29.80;50.40
3715;DHT22;1873;49.988;8.674;2022-07-24T15:19:13;29.70;49.90
3715;DHT22;1873;49.988;8.674;2022-07-24T15:21:43;29.70;50.00
3715;DHT22;1873;49.988;8.674;2022-07-24T15:24:11;29.70;49.80
3715;DHT22;1873;49.988;8.674;2022-07-24T15:27:07;29.80;50.40
3715;DHT22;1873;49.988;8.674;2022-07-24T15:29:35;29.80;50.30
3715;DHT22;1873;49.988;8.674;2022-07-24T15:32:04;29.80;50.70
3715;DHT22;1873;49.988;8.674;2022-07-24T15:34:34;30.00;49.20
3715;DHT22;1873;49.988;8.674;2022-07-24T15:37:02;30.00;49.40
3715;DHT22;1873;49.988;8.674;2022-07-24T15:39:31;30.10;49.80
3715;DHT22;1873;49.988;8.674;2022-07-24T15:41:59;30.10;48.60
3715;DHT22;1873;49.988;8.674;2022-07-24T15:44:27;30.20;47.60
3715;DHT22;1873;49.988;8.674;2022-07-24T15:46:57;30.40;48.00
3715;DHT22;1873;49.988;8.674;2022-07-24T15:49:26;30.30;49.60
3715;DHT22;1873;49.988;8.674;2022-07-24T15:51:58;30.20;49.40
3715;DHT22;1873;49.988;8.674;2022-07-24T15:54:26;30.10;50.10
3715;DHT22;1873;49.988;8.674;2022-07-24T15:56:54;30.00;49.80
3715;DHT22;1873;49.988;8.674;2022-07-24T15:59:23;30.10;50.10
3715;DHT22;1873;49.988;8.674;2022-07-24T16:01:51;30.20;48.40
3715;DHT22;1873;49.988;8.674;2022-07-24T16:04:20;30.50;47.60
3715;DHT22;1873;49.988;8.674;2022-07-24T16:06:48;30.50;48.00
3715;DHT22;1873;49.988;8.674;2022-07-24T16:09:18;30.60;48.30
3715;DHT22;1873;49.988;8.674;2022-07-24T16:11:47;30.20;50.40
3715;DHT22;1873;49.988;8.674;2022-07-24T16:14:21;30.10;50.40
3715;DHT22;1873;49.988;8.674;2022-07-24T16:16:49;30.00;50.80
3715;DHT22;1873;49.988;8.674;2022-07-24T16:19:18;29.80;51.10
3715;DHT22;1873;49.988;8.674;2022-07-24T16:21:47;29.70;51.80
3715;DHT22;1873;49.988;8.674;2022-07-24T16:24:15;29.60;51.70
3715;DHT22;1873;49.988;8.674;2022-07-24T16:26:46;29.60;51.10